createdAt,value
2022-09-07T00:00:37.218Z,18.19
2022-09-07T00:05:48.226Z,18.15
2022-09-07T00:11:01.975Z,18.10
2022-09-07T00:16:06.913Z,18.06
2022-09-07T00:21:10.247Z,18.05
2022-09-07T00:26:15.336Z,18.03
2022-09-07T00:31:22.917Z,17.98
2022-09-07T00:36:24.741Z,17.98
2022-09-07T00:41:28.234Z,17.94
2022-09-07T00:46:34.328Z,17.91
2022-09-07T00:51:43.870Z,17.88
2022-09-07T00:56:47.174Z,17.84
2022-09-07T01:01:49.501Z,17.80
2022-09-07T01:06:54.036Z,17.78
2022-09-07T01:11:59.809Z,17.77
2022-09-07T01:17:49.502Z,17.75
2022-09-07T01:23:03.363Z,17.74
2022-09-07T01:28:24.887Z,17.71
2022-09-07T01:33:47.635Z,17.67
2022-09-07T01:39:02.320Z,17.67
2022-09-07T01:44:21.973Z,17.65
2022-09-07T01:49:29.465Z,17.60
2022-09-07T01:55:13.899Z,17.59
2022-09-07T02:00:19.925Z,17.57
2022-09-07T02:05:27.003Z,17.57
2022-09-07T02:10:39.103Z,17.55
2022-09-07T02:15:52.686Z,17.54
2022-09-07T02:20:58.092Z,17.53
2022-09-07T02:26:07.082Z,17.53
2022-09-07T02:31:09.058Z,17.51
2022-09-07T02:36:13.447Z,17.47
2022-09-07T02:41:35.225Z,17.45
2022-09-07T02:47:05.036Z,17.44
2022-09-07T02:52:43.779Z,17.41
2022-09-07T02:58:19.084Z,17.39
2022-09-07T03:03:41.855Z,17.38
2022-09-07T03:08:55.621Z,17.34
2022-09-07T03:14:26.357Z,17.32
2022-09-07T03:19:28.345Z,17.31
2022-09-07T03:24:30.270Z,17.30
2022-09-07T03:29:32.194Z,17.26
2022-09-07T03:34:34.310Z,17.23
2022-09-07T03:39:36.733Z,17.22
2022-09-07T03:44:38.635Z,17.20
2022-09-07T03:49:40.650Z,17.18
2022-09-07T03:54:42.516Z,17.14
2022-09-07T03:59:45.299Z,17.12
2022-09-07T04:04:47.225Z,17.13
2022-09-07T04:09:51.617Z,17.10
2022-09-07T04:14:53.506Z,17.07
2022-09-07T04:19:55.923Z,17.06
2022-09-07T04:24:57.943Z,17.07
2022-09-07T04:30:00.237Z,17.05
2022-09-07T04:35:02.614Z,17.06
2022-09-07T04:40:05.743Z,17.06
2022-09-07T04:45:08.413Z,17.07
2022-09-07T04:50:10.517Z,17.08
2022-09-07T04:55:12.790Z,17.13
2022-09-07T05:00:15.230Z,17.19
2022-09-07T05:05:17.307Z,17.25
2022-09-07T05:10:19.659Z,17.32
2022-09-07T05:15:21.802Z,17.37
2022-09-07T05:20:24.531Z,17.42
2022-09-07T05:25:29.267Z,17.43
2022-09-07T05:35:59.138Z,17.49
2022-09-07T05:41:01.380Z,17.55
2022-09-07T05:46:03.889Z,17.58
2022-09-07T05:51:07.290Z,17.65
2022-09-07T05:56:09.931Z,17.78
2022-09-07T06:01:13.427Z,17.90
2022-09-07T06:06:19.011Z,17.97
2022-09-07T06:11:23.628Z,18.04
2022-09-07T06:16:26.102Z,18.15
2022-09-07T06:21:28.487Z,18.21
2022-09-07T06:26:31.507Z,18.22
2022-09-07T06:31:34.564Z,18.25
2022-09-07T06:36:36.677Z,18.28
2022-09-07T06:47:05.370Z,18.44
2022-09-07T06:52:07.397Z,18.45
2022-09-07T06:57:09.739Z,18.51
2022-09-07T07:02:15.344Z,18.64
2022-09-07T07:07:17.864Z,18.80
2022-09-07T07:17:20.840Z,19.13
2022-09-07T07:22:45.980Z,19.25
2022-09-07T07:27:48.468Z,19.41
2022-09-07T07:32:50.426Z,19.54
2022-09-07T07:43:15.578Z,19.84
2022-09-07T07:48:17.413Z,19.89
2022-09-07T07:58:46.447Z,20.27
2022-09-07T08:03:49.390Z,20.42
2022-09-07T08:08:51.470Z,20.57
2022-09-07T08:13:55.172Z,20.75
2022-09-07T08:18:58.255Z,20.83
2022-09-07T08:24:00.248Z,20.97
2022-09-07T08:29:02.408Z,21.13
2022-09-07T08:34:04.365Z,21.31
2022-09-07T08:39:06.571Z,21.47
2022-09-07T08:44:38.784Z,21.60
2022-09-07T08:50:01.439Z,21.68
2022-09-07T08:55:11.951Z,21.84
2022-09-07T09:00:17.611Z,22.03
2022-09-07T09:05:28.477Z,22.14
2022-09-07T09:10:45.465Z,22.23
2022-09-07T09:15:52.349Z,22.50
2022-09-07T09:20:56.936Z,22.66
2022-09-07T09:26:16.074Z,22.69
2022-09-07T09:31:20.953Z,22.68
2022-09-07T09:36:26.002Z,22.66
2022-09-07T09:41:37.554Z,22.79
2022-09-07T09:46:39.935Z,22.88
2022-09-07T09:57:16.603Z,22.94
2022-09-07T10:07:55.038Z,22.93
2022-09-07T10:12:57.279Z,22.95
2022-09-07T10:17:59.971Z,22.96
2022-09-07T10:23:03.454Z,22.92
2022-09-07T10:28:14.635Z,22.88
2022-09-07T10:34:25.636Z,22.79
2022-09-07T10:39:14.289Z,22.74
2022-09-07T10:44:36.089Z,22.77
2022-09-07T10:50:25.792Z,22.86
2022-09-07T10:55:34.201Z,22.93
2022-09-07T11:01:04.103Z,23.08
2022-09-07T11:06:15.444Z,23.24
2022-09-07T11:11:20.501Z,23.39
2022-09-07T11:22:01.195Z,23.53
2022-09-07T11:27:12.374Z,23.59
2022-09-07T11:32:29.915Z,23.61
2022-09-07T11:37:55.695Z,23.66
2022-09-07T11:43:21.795Z,23.70
2022-09-07T11:49:10.805Z,23.88
2022-09-07T11:54:37.395Z,23.98
2022-09-07T12:00:11.394Z,23.97
2022-09-07T12:05:41.715Z,24.10
2022-09-07T12:10:46.606Z,24.11
2022-09-07T12:15:59.932Z,24.17
2022-09-07T12:21:01.995Z,24.22
2022-09-07T12:26:35.585Z,24.19
2022-09-07T12:31:58.818Z,24.01
2022-09-07T12:37:12.521Z,23.82
2022-09-07T12:42:37.836Z,23.68
2022-09-07T12:47:40.674Z,23.56
2022-09-07T12:52:53.463Z,23.46
2022-09-07T12:58:10.215Z,23.34
2022-09-07T13:08:57.987Z,23.14
2022-09-07T13:14:08.845Z,22.99
2022-09-07T13:19:48.939Z,22.88
2022-09-07T13:24:55.723Z,22.71
2022-09-07T13:30:01.264Z,22.42
2022-09-07T13:35:05.557Z,22.28
2022-09-07T13:40:11.566Z,22.31
2022-09-07T13:45:33.315Z,22.37
2022-09-07T13:51:17.437Z,22.35
2022-09-07T13:56:45.571Z,22.41
2022-09-07T14:01:49.678Z,22.54
2022-09-07T14:07:03.838Z,22.63
2022-09-07T14:12:20.416Z,22.72
2022-09-07T14:17:22.589Z,22.74
2022-09-07T14:22:35.316Z,22.78
2022-09-07T14:27:42.942Z,22.81
2022-09-07T14:32:49.803Z,22.81
2022-09-07T14:37:53.254Z,22.85
2022-09-07T14:42:55.936Z,22.94
2022-09-07T14:47:58.015Z,23.13
2022-09-07T14:58:32.293Z,23.51
2022-09-07T15:03:55.762Z,23.56
2022-09-07T15:08:57.912Z,23.54
2022-09-07T15:14:02.207Z,23.55
2022-09-07T15:19:33.044Z,23.65
2022-09-07T15:24:35.629Z,23.78
2022-09-07T15:29:37.477Z,23.93
2022-09-07T15:34:39.279Z,24.07
2022-09-07T15:39:41.169Z,24.15
2022-09-07T15:44:43.042Z,24.19
2022-09-07T15:49:50.312Z,24.18
2022-09-07T15:54:53.366Z,24.13
2022-09-07T15:59:55.185Z,24.08
2022-09-07T16:04:57.098Z,24.00
2022-09-07T16:10:02.531Z,23.93
2022-09-07T16:15:06.019Z,23.79
2022-09-07T16:20:08.353Z,23.63
2022-09-07T16:25:10.176Z,23.46
2022-09-07T16:30:13.408Z,23.31
2022-09-07T16:35:15.327Z,23.17
2022-09-07T16:40:17.241Z,23.06
2022-09-07T16:50:56.578Z,22.84
2022-09-07T16:56:05.163Z,22.76
2022-09-07T17:01:09.537Z,22.69
2022-09-07T17:06:13.433Z,22.63
2022-09-07T17:11:18.324Z,22.58
2022-09-07T17:16:29.908Z,22.55
2022-09-07T17:21:34.314Z,22.52
2022-09-07T17:26:36.238Z,22.49
2022-09-07T17:37:01.102Z,22.35
2022-09-07T17:42:03.226Z,22.29
2022-09-07T17:47:05.306Z,22.26
2022-09-07T17:52:07.115Z,22.21
2022-09-07T17:57:08.934Z,22.19
2022-09-07T18:02:13.802Z,22.17
2022-09-07T18:07:15.705Z,22.13
2022-09-07T18:12:17.708Z,22.16
2022-09-07T18:17:19.583Z,22.20
2022-09-07T18:22:21.388Z,22.25
2022-09-07T18:27:23.126Z,22.27
2022-09-07T18:32:25.047Z,22.24
2022-09-07T18:37:26.821Z,22.20
2022-09-07T18:42:29.963Z,22.16
2022-09-07T18:47:31.787Z,22.14
2022-09-07T18:57:56.091Z,22.04
2022-09-07T19:02:57.811Z,21.97
2022-09-07T19:08:02.648Z,21.95
2022-09-07T19:13:04.722Z,21.92
2022-09-07T19:18:07.852Z,21.86
2022-09-07T19:23:09.811Z,21.72
2022-09-07T19:28:11.651Z,21.61
2022-09-07T19:33:13.661Z,21.54
2022-09-07T19:38:15.427Z,21.47
2022-09-07T19:43:17.142Z,21.43
2022-09-07T19:48:18.917Z,21.37
2022-09-07T19:53:20.921Z,21.31
2022-09-07T19:58:22.711Z,21.26
2022-09-07T20:03:24.773Z,21.23
2022-09-07T20:08:26.618Z,21.19
2022-09-07T20:13:28.481Z,21.15
2022-09-07T20:18:31.024Z,21.12
2022-09-07T20:23:34.480Z,21.09
2022-09-07T20:28:37.088Z,21.07
2022-09-07T20:33:39.511Z,21.00
2022-09-07T20:38:53.271Z,20.96
2022-09-07T20:43:56.720Z,20.92
2022-09-07T20:48:58.871Z,20.86
2022-09-07T20:54:00.747Z,20.81
2022-09-07T20:59:03.248Z,20.77
2022-09-07T21:04:06.357Z,20.73
2022-09-07T21:09:08.372Z,20.69
2022-09-07T21:14:13.850Z,20.69
2022-09-07T21:19:15.824Z,20.67
2022-09-07T21:24:20.937Z,20.67
2022-09-07T21:29:24.767Z,20.66
2022-09-07T21:34:26.603Z,20.63
2022-09-07T21:39:28.485Z,20.60
2022-09-07T21:44:30.542Z,20.55
2022-09-07T21:49:32.467Z,20.51
2022-09-07T21:54:34.518Z,20.45
2022-09-07T21:59:36.464Z,20.39
2022-09-07T22:04:38.320Z,20.32
2022-09-07T22:09:40.191Z,20.29
2022-09-07T22:14:44.048Z,20.25
2022-09-07T22:19:45.947Z,20.22
2022-09-07T22:24:47.958Z,20.19
2022-09-07T22:29:49.929Z,20.18
2022-09-07T22:34:51.852Z,20.16
2022-09-07T22:39:54.124Z,20.13
2022-09-07T22:44:56.299Z,20.09
2022-09-07T22:49:58.492Z,20.06
2022-09-07T22:55:00.279Z,20.03
2022-09-07T23:00:02.394Z,20.02
2022-09-07T23:05:04.294Z,20.02
2022-09-07T23:10:06.817Z,20.02
2022-09-07T23:15:08.964Z,20.03
2022-09-07T23:20:10.805Z,20.05
2022-09-07T23:25:13.147Z,20.06
2022-09-07T23:30:15.033Z,20.07
2022-09-07T23:35:16.875Z,20.05
2022-09-07T23:40:19.250Z,20.00
2022-09-07T23:45:21.057Z,19.97
2022-09-07T23:50:23.054Z,19.93
2022-09-07T23:55:25.002Z,19.87
